Time;durP1;ratioP1;P1;durP2;ratioP2;P2;SDS_P1;SDS_P2;PMS_P1;PMS_P2;Temp;Humidity;BMP_temperature;BMP_pressure;BME280_temperature;BME280_humidity;BME280_pressure;Samples;Min_cycle;Max_cycle;Signal;HPM_P1;HPM_P2
2023/01/12 00:01:22;;;;;;;16.05;4.95;;;7.80;99.90;;;;;;4982137;28;20496;-51
2023/01/12 00:03:48;;;;;;;15.98;4.60;;;7.80;99.90;;;;;;4983291;28;20046;-51
2023/01/12 00:06:14;;;;;;;16.33;4.20;;;7.80;99.90;;;;;;4983952;28;20034;-51
2023/01/12 00:08:40;;;;;;;20.77;5.57;;;7.80;99.90;;;;;;4991204;28;20401;-50
2023/01/12 00:11:06;;;;;;;22.10;4.57;;;7.80;99.90;;;;;;4983222;28;20106;-49
2023/01/12 00:13:33;;;;;;;19.10;4.47;;;7.80;99.90;;;;;;4982864;28;20096;-51
2023/01/12 00:18:48;;;;;;;16.45;4.43;;;7.80;99.90;;;;;;4983170;28;20042;-51
2023/01/12 00:21:14;;;;;;;19.63;5.20;;;7.80;99.90;;;;;;4977927;28;20065;-50
2023/01/12 00:23:41;;;;;;;15.98;4.53;;;7.80;99.90;;;;;;4978105;28;20056;-50
2023/01/12 00:26:07;;;;;;;19.73;5.43;;;7.80;99.90;;;;;;4981623;28;20449;-51
2023/01/12 00:28:34;;;;;;;14.75;4.40;;;7.70;99.90;;;;;;4979458;28;20316;-51
2023/01/12 00:31:08;;;;;;;19.25;4.15;;;7.70;99.90;;;;;;4974282;28;20042;-50
2023/01/12 00:33:35;;;;;;;13.75;3.83;;;7.70;99.90;;;;;;4980406;28;20051;-51
2023/01/12 00:36:03;;;;;;;18.38;4.00;;;7.60;99.90;;;;;;4978976;28;20754;-50
2023/01/12 00:38:29;;;;;;;14.27;3.67;;;7.60;99.90;;;;;;4977226;28;21885;-52
2023/01/12 00:40:54;;;;;;;17.17;3.90;;;7.50;99.90;;;;;;4984798;28;20189;-50
2023/01/12 00:46:04;;;;;;;14.65;3.75;;;7.50;99.90;;;;;;4980286;28;20493;-49
2023/01/12 00:48:30;;;;;;;15.65;3.70;;;7.50;99.90;;;;;;4981618;28;20050;-50
2023/01/12 00:50:55;;;;;;;14.07;3.55;;;7.60;99.90;;;;;;4981077;28;20047;-51
2023/01/12 00:53:21;;;;;;;15.05;3.80;;;7.60;99.90;;;;;;4976265;28;20788;-49
2023/01/12 00:55:47;;;;;;;17.35;3.72;;;7.60;99.90;;;;;;4980368;28;20452;-50
2023/01/12 00:58:12;;;;;;;18.83;4.03;;;7.60;99.90;;;;;;4982283;28;20034;-49
2023/01/12 01:00:38;;;;;;;19.23;4.00;;;7.60;99.90;;;;;;4987253;28;20058;-50
2023/01/12 01:03:03;;;;;;;15.25;3.78;;;7.60;99.90;;;;;;4976516;28;20070;-50
2023/01/12 01:05:29;;;;;;;17.02;3.97;;;7.60;99.90;;;;;;4980200;28;20097;-49
2023/01/12 01:07:55;;;;;;;15.55;3.70;;;7.70;99.90;;;;;;4976435;28;20053;-50
2023/01/12 01:10:20;;;;;;;17.17;4.00;;;7.70;99.90;;;;;;4976949;28;20085;-50
2023/01/12 01:12:46;;;;;;;18.40;4.32;;;7.70;99.90;;;;;;4980819;28;20114;-51
2023/01/12 01:15:12;;;;;;;17.33;4.22;;;7.70;99.90;;;;;;4979325;28;20050;-50
2023/01/12 01:17:37;;;;;;;16.45;4.53;;;7.70;99.90;;;;;;4977096;28;20041;-50
2023/01/12 01:20:03;;;;;;;15.35;4.30;;;7.70;99.90;;;;;;4978734;28;20042;-54
2023/01/12 01:22:29;;;;;;;23.77;4.80;;;7.80;99.90;;;;;;4980624;28;20125;-53
2023/01/12 01:24:54;;;;;;;18.23;4.57;;;7.80;99.90;;;;;;4980630;28;20125;-50
2023/01/12 01:27:20;;;;;;;12.43;4.72;;;7.80;99.90;;;;;;4982290;28;20057;-50
2023/01/12 01:29:46;;;;;;;14.15;4.22;;;7.80;99.90;;;;;;4977506;28;20468;-54
2023/01/12 01:32:11;;;;;;;17.70;4.75;;;7.90;99.90;;;;;;4976885;28;20038;-49
2023/01/12 01:34:37;;;;;;;19.65;5.50;;;7.90;99.90;;;;;;4978591;28;20117;-54
2023/01/12 01:37:03;;;;;;;25.38;5.60;;;7.90;99.90;;;;;;4977324;28;20034;-50
2023/01/12 01:39:28;;;;;;;17.45;4.82;;;7.90;99.90;;;;;;4984342;28;20390;-51
2023/01/12 01:41:54;;;;;;;19.00;4.90;;;7.90;99.90;;;;;;4983625;28;20118;-50
2023/01/12 01:44:28;;;;;;;19.27;4.97;;;8.00;99.90;;;;;;4987350;28;20055;-50
2023/01/12 01:47:08;;;;;;;16.25;4.70;;;8.00;99.90;;;;;;4985357;28;20140;-50
2023/01/12 01:49:45;;;;;;;18.30;5.93;;;8.00;99.90;;;;;;4981784;28;20516;-51
2023/01/12 01:52:19;;;;;;;17.02;5.22;;;8.00;99.90;;;;;;4965353;28;20050;-50
2023/01/12 01:55:00;;;;;;;16.73;5.05;;;8.00;99.90;;;;;;4983751;28;20049;-53
2023/01/12 01:57:32;;;;;;;18.33;5.40;;;8.00;99.90;;;;;;4984915;28;20053;-54
2023/01/12 01:59:59;;;;;;;17.00;5.38;;;8.00;99.90;;;;;;4986045;28;20049;-52
2023/01/12 02:02:25;;;;;;;17.48;5.53;;;8.00;99.90;;;;;;4986628;28;20156;-52
2023/01/12 02:04:53;;;;;;;14.65;5.32;;;8.00;99.90;;;;;;4985574;28;20647;-50
2023/01/12 02:07:19;;;;;;;15.25;5.53;;;8.00;99.90;;;;;;4985684;28;20116;-54
2023/01/12 02:09:44;;;;;;;14.75;5.60;;;8.00;99.90;;;;;;4984496;28;20176;-54
2023/01/12 02:18:17;;;;;;;12.40;5.82;;;8.00;99.90;;;;;;4985658;28;20074;-50
2023/01/12 02:20:54;;;;;;;13.60;5.40;;;8.00;99.90;;;;;;4970630;28;20062;-51
2023/01/12 02:23:48;;;;;;;19.48;6.20;;;8.00;99.90;;;;;;4985401;28;20133;-49
2023/01/12 02:26:19;;;;;;;14.27;4.90;;;8.00;99.90;;;;;;4982531;28;20414;-50
2023/01/12 02:29:15;;;;;;;14.25;5.65;;;8.10;99.90;;;;;;4981442;28;20056;-54
2023/01/12 02:32:02;;;;;;;15.27;5.50;;;8.00;99.90;;;;;;4981316;28;20065;-50
2023/01/12 02:34:53;;;;;;;18.20;5.88;;;8.00;99.90;;;;;;4983366;28;20688;-53
2023/01/12 02:37:35;;;;;;;15.65;6.00;;;8.00;99.90;;;;;;4979676;28;20718;-49
2023/01/12 02:40:24;;;;;;;15.45;6.10;;;8.00;99.90;;;;;;4978460;28;20088;-51
2023/01/12 02:42:57;;;;;;;16.60;5.88;;;8.00;99.90;;;;;;4978474;28;20516;-50
2023/01/12 02:45:41;;;;;;;16.92;6.00;;;8.00;99.90;;;;;;4977236;28;20042;-49
2023/01/12 02:48:20;;;;;;;15.38;5.47;;;8.00;99.90;;;;;;4978154;28;20113;-51
2023/01/12 02:50:56;;;;;;;16.08;5.32;;;8.10;99.90;;;;;;4980591;28;20118;-50
2023/01/12 02:53:58;;;;;;;16.30;6.10;;;8.10;99.90;;;;;;4976794;28;20039;-50
2023/01/12 02:56:40;;;;;;;21.05;6.45;;;8.10;99.90;;;;;;4983517;28;20109;-49
2023/01/12 02:59:15;;;;;;;17.08;6.10;;;8.10;99.90;;;;;;4982267;28;20271;-51
2023/01/12 03:01:43;;;;;;;20.33;6.07;;;8.10;99.90;;;;;;4981366;28;20050;-51
2023/01/12 03:04:12;;;;;;;17.70;6.68;;;8.10;99.90;;;;;;4979579;28;20746;-51
2023/01/12 03:06:46;;;;;;;20.55;6.63;;;8.10;99.90;;;;;;4984321;28;20054;-50
2023/01/12 03:09:16;;;;;;;20.75;7.25;;;8.10;99.90;;;;;;4983025;28;20034;-50
2023/01/12 03:11:43;;;;;;;17.52;8.05;;;8.10;99.90;;;;;;4977549;28;20124;-50
2023/01/12 03:14:11;;;;;;;20.05;7.03;;;8.10;99.90;;;;;;4979911;28;20118;-51
2023/01/12 03:16:39;;;;;;;22.10;7.50;;;8.10;99.90;;;;;;4978178;28;20126;-50
2023/01/12 03:19:08;;;;;;;13.07;6.93;;;;;;;;;;4977701;28;20049;-50
2023/01/12 03:21:38;;;;;;;18.90;7.22;;;8.20;99.90;;;;;;4979712;28;20088;-52
2023/01/12 03:24:16;;;;;;;18.85;6.78;;;8.20;99.90;;;;;;4986270;28;20050;-51
2023/01/12 03:26:54;;;;;;;16.77;7.50;;;8.20;99.90;;;;;;4987627;28;20053;-51
2023/01/12 03:29:26;;;;;;;17.52;6.57;;;8.20;99.90;;;;;;4987147;28;20047;-53
2023/01/12 03:31:52;;;;;;;15.80;6.97;;;8.20;99.90;;;;;;4984064;28;20046;-50
2023/01/12 03:34:18;;;;;;;17.50;6.57;;;8.20;99.90;;;;;;4988653;28;20057;-51
2023/01/12 03:36:55;;;;;;;15.18;6.22;;;8.20;99.90;;;;;;4984349;28;20054;-51
2023/01/12 03:39:27;;;;;;;12.88;5.93;;;8.20;99.90;;;;;;4980823;28;20050;-50
2023/01/12 03:42:04;;;;;;;10.65;5.28;;;8.20;99.90;;;;;;4980615;28;20124;-52
2023/01/12 03:45:05;;;;;;;12.85;5.22;;;8.20;99.90;;;;;;4979178;28;20035;-51
2023/01/12 03:47:32;;;;;;;12.50;5.28;;;8.30;99.90;;;;;;4973726;28;20046;-50
2023/01/12 03:50:12;;;;;;;8.50;4.78;;;8.20;99.90;;;;;;4996201;28;20046;-50
2023/01/12 03:52:40;;;;;;;9.05;4.60;;;8.30;99.90;;;;;;4977382;28;21867;-50
2023/01/12 03:55:09;;;;;;;6.88;3.70;;;8.30;99.90;;;;;;4983280;28;20086;-49
2023/01/12 03:57:36;;;;;;;9.40;4.30;;;8.30;99.90;;;;;;4987337;28;20069;-50
2023/01/12 04:00:06;;;;;;;8.77;3.78;;;8.30;99.90;;;;;;4984182;28;20049;-51
2023/01/12 04:02:32;;;;;;;10.90;3.83;;;8.30;99.90;;;;;;4981312;28;20136;-50
2023/01/12 04:04:58;;;;;;;7.95;3.90;;;8.30;99.90;;;;;;4983310;28;20043;-56
2023/01/12 04:07:24;;;;;;;7.30;3.47;;;8.30;99.90;;;;;;4982228;28;20122;-50
2023/01/12 04:09:49;;;;;;;9.98;3.13;;;8.30;99.90;;;;;;4984724;28;20047;-51
2023/01/12 04:12:15;;;;;;;8.80;3.40;;;8.30;99.90;;;;;;4982386;28;20050;-50
2023/01/12 04:14:43;;;;;;;7.07;2.92;;;8.30;99.90;;;;;;4988162;28;20048;-50
2023/01/12 04:17:13;;;;;;;9.80;2.30;;;8.30;99.90;;;;;;4985689;28;20480;-49
2023/01/12 04:19:39;;;;;;;9.00;2.70;;;8.40;99.90;;;;;;4981432;28;20050;-50
2023/01/12 04:24:51;;;;;;;6.18;2.00;;;8.30;99.90;;;;;;4981638;28;20405;-50
2023/01/12 04:27:17;;;;;;;7.70;2.30;;;8.30;99.90;;;;;;4985530;28;20151;-51
2023/01/12 04:29:43;;;;;;;8.25;2.22;;;8.30;99.90;;;;;;4981564;28;20042;-52
2023/01/12 04:32:09;;;;;;;5.53;1.95;;;8.30;99.90;;;;;;4984702;28;20038;-53
2023/01/12 04:34:34;;;;;;;5.95;2.13;;;8.30;99.90;;;;;;4980395;28;20055;-50
2023/01/12 04:37:01;;;;;;;4.75;1.98;;;8.30;99.90;;;;;;4983484;28;20034;-51
2023/01/12 04:39:27;;;;;;;7.22;2.10;;;8.30;99.90;;;;;;4983193;28;20511;-51
2023/01/12 04:41:53;;;;;;;8.75;2.40;;;8.30;99.90;;;;;;4994496;28;20057;-55
2023/01/12 04:44:19;;;;;;;6.95;2.08;;;8.30;99.90;;;;;;4977231;28;20038;-51
2023/01/12 04:46:44;;;;;;;7.22;2.30;;;8.40;99.90;;;;;;4982711;28;20073;-53
2023/01/12 04:49:10;;;;;;;5.53;1.90;;;8.30;99.90;;;;;;4982249;28;20062;-52
2023/01/12 04:51:36;;;;;;;7.43;2.20;;;8.30;99.90;;;;;;4982785;28;20035;-51
2023/01/12 04:54:01;;;;;;;8.20;2.10;;;8.30;99.90;;;;;;4975963;28;20054;-51
2023/01/12 04:56:27;;;;;;;8.48;2.30;;;8.30;99.90;;;;;;4979288;28;20386;-51
2023/01/12 04:58:59;;;;;;;7.50;2.10;;;8.30;99.90;;;;;;4980693;28;20065;-50
2023/01/12 05:01:26;;;;;;;6.65;2.00;;;8.30;99.90;;;;;;4978724;28;20070;-53
2023/01/12 05:03:56;;;;;;;6.68;2.10;;;8.30;99.90;;;;;;4978842;28;20404;-52
2023/01/12 05:06:22;;;;;;;8.55;1.80;;;8.30;99.90;;;;;;4978859;28;20050;-51
2023/01/12 05:11:32;;;;;;;6.15;1.73;;;8.30;99.90;;;;;;4982439;28;20047;-50
2023/01/12 05:13:57;;;;;;;6.10;1.65;;;8.30;99.90;;;;;;4983298;28;20078;-54
2023/01/12 05:16:25;;;;;;;3.00;1.45;;;8.30;99.90;;;;;;4979595;28;20042;-49
2023/01/12 05:18:52;;;;;;;7.95;1.50;;;8.30;99.90;;;;;;4986765;28;20173;-51
2023/01/12 05:21:20;;;;;;;7.30;1.92;;;8.30;99.90;;;;;;4992924;28;20553;-51
2023/01/12 05:23:47;;;;;;;4.13;1.75;;;8.30;99.90;;;;;;4988478;28;20437;-52
2023/01/12 05:26:13;;;;;;;8.50;1.60;;;8.30;99.90;;;;;;4982817;28;20108;-49
2023/01/12 05:28:39;;;;;;;6.72;1.48;;;8.30;99.90;;;;;;4986071;28;20038;-53
2023/01/12 05:31:10;;;;;;;5.72;1.63;;;8.30;99.90;;;;;;4982432;28;20416;-51
2023/01/12 05:33:37;;;;;;;4.63;1.27;;;8.30;99.90;;;;;;4982056;28;20082;-52
2023/01/12 05:36:05;;;;;;;5.15;1.42;;;8.30;99.90;;;;;;4982361;28;21247;-52
2023/01/12 05:38:31;;;;;;;7.68;1.73;;;8.30;99.90;;;;;;4978864;28;21364;-49
2023/01/12 05:41:00;;;;;;;6.65;1.67;;;8.30;99.90;;;;;;4980064;28;20046;-52
2023/01/12 05:46:11;;;;;;;4.40;1.40;;;8.30;99.90;;;;;;4981156;28;20050;-51
2023/01/12 05:48:37;;;;;;;4.10;1.70;;;8.20;99.90;;;;;;4986184;28;20345;-52
2023/01/12 05:51:04;;;;;;;5.05;1.40;;;8.20;99.90;;;;;;4985204;28;20097;-52
2023/01/12 05:53:31;;;;;;;4.47;1.50;;;8.30;99.90;;;;;;4979653;28;20039;-50
2023/01/12 05:55:57;;;;;;;5.32;1.75;;;8.30;99.90;;;;;;4983812;28;20400;-50
2023/01/12 05:58:23;;;;;;;5.80;1.52;;;8.30;99.90;;;;;;4984263;28;20152;-51
2023/01/12 06:00:49;;;;;;;6.32;1.50;;;8.30;99.90;;;;;;4985191;28;20051;-53
2023/01/12 06:03:15;;;;;;;4.88;1.67;;;8.30;99.90;;;;;;4985216;28;20077;-53
2023/01/12 06:05:40;;;;;;;5.53;1.77;;;8.30;99.90;;;;;;4967877;28;20038;-51
2023/01/12 06:08:06;;;;;;;6.65;1.65;;;8.30;99.90;;;;;;4983408;28;20089;-50
2023/01/12 06:10:33;;;;;;;7.35;1.73;;;;;;;;;;4985322;28;20054;-50
2023/01/12 06:15:44;;;;;;;7.88;1.80;;;8.30;99.90;;;;;;4985345;28;20104;-52
2023/01/12 06:18:09;;;;;;;4.80;1.60;;;8.40;99.90;;;;;;4986098;28;20125;-50
2023/01/12 06:20:35;;;;;;;5.65;1.58;;;8.40;99.90;;;;;;4987948;28;20041;-51
2023/01/12 06:23:02;;;;;;;5.47;1.75;;;8.40;99.90;;;;;;4979867;28;20108;-51
2023/01/12 06:25:28;;;;;;;4.33;1.37;;;8.40;99.90;;;;;;4982168;28;20496;-49
2023/01/12 06:27:55;;;;;;;5.25;1.50;;;8.50;99.90;;;;;;4982400;28;20297;-49
2023/01/12 06:30:21;;;;;;;5.65;1.55;;;8.40;99.90;;;;;;4985269;28;20108;-50
2023/01/12 06:32:46;;;;;;;3.88;1.40;;;8.50;99.90;;;;;;4980623;28;20642;-50
2023/01/12 06:35:12;;;;;;;6.35;1.50;;;8.50;99.90;;;;;;4980412;28;20169;-51
2023/01/12 06:37:38;;;;;;;6.80;1.52;;;8.50;99.90;;;;;;4978214;28;20046;-50
2023/01/12 06:40:04;;;;;;;3.80;1.40;;;8.50;99.90;;;;;;4985429;28;20049;-48
2023/01/12 06:42:30;;;;;;;5.18;1.85;;;8.50;99.90;;;;;;4981513;28;20046;-51
2023/01/12 06:44:57;;;;;;;5.80;1.67;;;8.60;99.90;;;;;;4982612;28;20042;-50
2023/01/12 06:47:23;;;;;;;4.43;2.05;;;8.50;99.90;;;;;;4979442;28;20551;-52
2023/01/12 06:49:52;;;;;;;5.82;1.58;;;8.50;99.90;;;;;;4981437;28;20069;-51
2023/01/12 06:52:23;;;;;;;5.43;1.70;;;8.50;99.90;;;;;;4981626;28;20401;-55
2023/01/12 06:54:49;;;;;;;6.65;1.52;;;8.60;99.90;;;;;;4978488;28;20065;-55
2023/01/12 06:57:15;;;;;;;4.95;1.70;;;8.60;99.90;;;;;;4982887;28;20038;-51
2023/01/12 06:59:41;;;;;;;4.35;1.50;;;8.60;99.90;;;;;;4980651;28;20038;-50
2023/01/12 07:02:14;;;;;;;5.68;2.08;;;8.60;99.90;;;;;;4982965;28;20524;-51
2023/01/12 07:04:40;;;;;;;6.32;1.70;;;8.70;99.90;;;;;;4979252;28;20039;-52
2023/01/12 07:07:07;;;;;;;4.05;1.40;;;8.70;99.90;;;;;;4984248;28;20070;-52
2023/01/12 07:09:33;;;;;;;3.78;1.50;;;8.70;99.90;;;;;;4984393;28;20038;-53
2023/01/12 07:11:58;;;;;;;3.33;1.33;;;8.70;99.90;;;;;;4983285;28;20113;-50
2023/01/12 07:14:24;;;;;;;4.63;1.40;;;8.70;99.90;;;;;;4978741;28;20086;-53
2023/01/12 07:16:50;;;;;;;4.10;1.30;;;8.70;99.90;;;;;;4982059;28;20097;-51
2023/01/12 07:19:15;;;;;;;4.55;1.30;;;8.70;99.90;;;;;;4981666;28;20084;-52
2023/01/12 07:21:42;;;;;;;2.80;1.23;;;8.70;99.90;;;;;;4977061;28;20135;-51
2023/01/12 07:24:08;;;;;;;1.60;1.00;;;8.80;99.90;;;;;;4977956;28;21314;-52
2023/01/12 07:26:34;;;;;;;1.73;1.00;;;8.80;99.90;;;;;;4978415;28;20046;-53
2023/01/12 07:29:00;;;;;;;3.30;1.08;;;8.80;99.90;;;;;;4963692;28;20473;-52
2023/01/12 07:31:25;;;;;;;3.47;1.10;;;8.80;99.90;;;;;;4977696;28;20392;-51
2023/01/12 07:33:52;;;;;;;3.65;1.20;;;8.80;99.90;;;;;;4978097;28;20065;-52
2023/01/12 07:36:18;;;;;;;2.08;1.00;;;8.80;99.90;;;;;;4981666;28;20390;-52
2023/01/12 07:38:44;;;;;;;3.13;1.23;;;8.80;99.90;;;;;;4980464;28;20049;-51
2023/01/12 07:42:22;;;;;;;4.13;1.20;;;8.80;99.90;;;;;;4978292;28;20501;-51
2023/01/12 07:43:55;;;;;;;3.30;1.50;;;8.80;99.90;;;;;;4983310;28;20042;-52
2023/01/12 07:46:21;;;;;;;4.55;1.20;;;8.80;99.90;;;;;;5003422;28;20041;-51
2023/01/12 07:48:47;;;;;;;3.25;1.02;;;8.80;99.90;;;;;;4979198;28;20046;-51
2023/01/12 07:51:13;;;;;;;1.95;1.40;;;8.80;99.90;;;;;;4976987;28;20096;-51
2023/01/12 07:53:38;;;;;;;3.35;1.30;;;8.80;99.90;;;;;;4978291;28;20050;-51
2023/01/12 07:56:04;;;;;;;5.32;1.58;;;8.80;99.90;;;;;;4983003;28;20500;-51
2023/01/12 07:58:30;;;;;;;1.48;1.17;;;8.90;99.90;;;;;;4982952;28;21393;-50
2023/01/12 08:00:59;;;;;;;2.55;1.42;;;8.90;99.90;;;;;;4982131;28;20073;-51
2023/01/12 08:03:25;;;;;;;3.53;1.20;;;8.90;99.90;;;;;;4982381;28;20046;-52
2023/01/12 08:05:52;;;;;;;3.67;1.35;;;8.90;99.90;;;;;;4983684;28;20042;-49
2023/01/12 08:08:18;;;;;;;2.15;1.13;;;8.90;99.90;;;;;;4983278;28;20069;-50
2023/01/12 08:10:46;;;;;;;2.70;1.00;;;8.90;99.90;;;;;;4988605;28;20054;-53
2023/01/12 08:13:12;;;;;;;1.52;1.20;;;8.90;99.90;;;;;;4981571;28;20054;-50
2023/01/12 08:15:45;;;;;;;2.08;1.30;;;8.90;99.90;;;;;;4986989;28;20044;-50
2023/01/12 08:18:22;;;;;;;1.85;1.60;;;9.00;99.90;;;;;;4981100;28;20100;-54
2023/01/12 08:20:48;;;;;;;3.65;1.60;;;9.00;99.90;;;;;;4981644;28;20062;-55
2023/01/12 08:23:37;;;;;;;2.47;1.05;;;9.00;99.90;;;;;;4958642;28;20052;-51
2023/01/12 08:26:09;;;;;;;1.55;1.15;;;9.00;99.90;;;;;;4978212;28;20047;-52
2023/01/12 08:28:39;;;;;;;2.78;1.40;;;9.00;99.90;;;;;;4979233;28;20049;-51
2023/01/12 08:31:09;;;;;;;1.40;1.30;;;9.10;99.90;;;;;;4981984;28;20109;-51
2023/01/12 08:33:36;;;;;;;1.60;1.50;;;9.10;99.90;;;;;;4981757;28;20125;-51
2023/01/12 08:36:04;;;;;;;3.13;1.33;;;9.10;99.90;;;;;;4985255;28;20051;-51
2023/01/12 08:38:30;;;;;;;2.90;1.70;;;9.10;99.90;;;;;;4987205;28;20046;-51
2023/01/12 08:46:24;;;;;;;1.67;1.58;;;9.20;99.90;;;;;;4983243;28;20055;-56
2023/01/12 08:48:49;;;;;;;2.90;1.60;;;9.20;99.90;;;;;;4973248;28;20512;-51
2023/01/12 08:51:15;;;;;;;2.38;1.70;;;9.20;99.90;;;;;;4983999;28;20043;-51
2023/01/12 08:53:40;;;;;;;1.55;1.30;;;9.30;99.90;;;;;;4983469;28;20044;-52
2023/01/12 08:56:06;;;;;;;1.40;1.30;;;9.30;99.90;;;;;;4985557;28;20126;-52
2023/01/12 08:58:33;;;;;;;3.53;1.65;;;;;;;;;;4985628;28;20042;-51
2023/01/12 09:01:09;;;;;;;1.70;1.60;;;;;;;;;;4984923;28;20046;-52
2023/01/12 09:03:36;;;;;;;1.50;1.40;;;;;;;;;;4989156;28;20043;-54
2023/01/12 09:06:12;;;;;;;3.20;1.53;;;;;;;;;;4990984;28;20052;-52
2023/01/12 09:08:38;;;;;;;1.65;1.30;;;;;;;;;;4991172;28;20481;-55
2023/01/12 09:11:05;;;;;;;2.90;1.83;;;;;;;;;;4991426;28;20060;-55
2023/01/12 09:13:34;;;;;;;2.22;1.70;;;;;;;;;;4991470;28;20090;-55
2023/01/12 09:16:07;;;;;;;4.72;1.80;;;;;;;;;;4985344;28;21617;-54
2023/01/12 09:18:34;;;;;;;6.10;2.33;;;;;;;;;;4988255;28;20073;-53
2023/01/12 09:21:04;;;;;;;4.85;2.30;;;;;;;;;;4988094;28;20551;-51
2023/01/12 09:23:31;;;;;;;4.05;2.60;;;;;;;;;;4986311;28;20070;-54
2023/01/12 09:25:57;;;;;;;7.78;2.70;;;;;;;;;;4983804;28;20038;-51
2023/01/12 09:28:23;;;;;;;8.45;2.72;;;;;;;;;;4986482;28;20405;-52
2023/01/12 09:30:49;;;;;;;8.82;3.20;;;;;;;;;;4985372;28;20082;-52
2023/01/12 09:33:14;;;;;;;9.23;3.00;;;9.80;99.90;;;;;;4986072;28;20038;-55
2023/01/12 09:35:43;;;;;;;6.68;2.90;;;9.90;99.90;;;;;;4984664;28;20532;-50
2023/01/12 09:38:09;;;;;;;8.60;3.50;;;9.90;99.90;;;;;;4986407;28;20042;-51
2023/01/12 09:40:35;;;;;;;9.68;3.08;;;10.00;99.90;;;;;;4984885;28;20658;-53
2023/01/12 09:48:29;;;;;;;7.60;3.00;;;10.00;99.90;;;;;;4988945;28;20086;-52
2023/01/12 09:51:12;;;;;;;11.00;2.88;;;10.00;99.90;;;;;;4983332;28;20078;-54
2023/01/12 09:53:40;;;;;;;10.20;3.00;;;10.10;99.90;;;;;;4988483;28;20070;-51
2023/01/12 09:56:27;;;;;;;11.02;2.85;;;10.20;99.90;;;;;;4987753;28;20409;-52
2023/01/12 09:59:09;;;;;;;14.27;3.45;;;10.20;99.90;;;;;;4994496;28;20076;-53
2023/01/12 10:01:36;;;;;;;16.88;3.25;;;10.20;99.90;;;;;;4987318;28;20050;-50
2023/01/12 10:04:03;;;;;;;14.65;3.78;;;10.20;99.90;;;;;;4983383;28;20465;-51
2023/01/12 10:06:30;;;;;;;16.30;3.25;;;10.30;99.90;;;;;;4986336;28;20492;-55
2023/01/12 10:09:05;;;;;;;14.30;3.65;;;10.30;99.90;;;;;;4982836;28;20081;-51
2023/01/12 10:11:53;;;;;;;13.57;3.10;;;10.30;99.90;;;;;;4985508;28;20042;-51
2023/01/12 10:14:30;;;;;;;14.77;3.28;;;10.40;99.90;;;;;;4984806;28;20049;-51
2023/01/12 10:16:58;;;;;;;15.55;3.60;;;10.30;99.90;;;;;;4985566;28;20551;-52
2023/01/12 10:19:37;;;;;;;17.88;3.25;;;10.40;99.90;;;;;;4984037;28;20089;-51
2023/01/12 10:22:35;;;;;;;12.60;3.13;;;10.40;99.90;;;;;;4981195;28;20497;-55
2023/01/12 10:25:03;;;;;;;18.20;3.42;;;10.50;99.90;;;;;;4983605;28;20405;-56
2023/01/12 10:27:28;;;;;;;19.85;3.75;;;10.50;99.90;;;;;;4983831;28;20066;-54
2023/01/12 10:29:57;;;;;;;13.55;2.90;;;10.50;99.90;;;;;;4983517;28;20088;-50
2023/01/12 10:32:26;;;;;;;18.27;3.00;;;10.50;99.90;;;;;;4984022;28;20070;-51
2023/01/12 10:34:51;;;;;;;14.55;2.92;;;10.60;99.90;;;;;;4987447;28;20391;-52
2023/01/12 10:37:17;;;;;;;17.27;2.83;;;10.60;99.90;;;;;;4990837;28;20093;-54
2023/01/12 10:39:43;;;;;;;11.77;2.80;;;10.60;99.90;;;;;;4990057;28;20492;-53
2023/01/12 10:43:17;;;;;;;18.33;3.78;;;10.60;99.90;;;;;;4989216;28;20038;-51
2023/01/12 10:45:21;;;;;;;23.92;3.50;;;10.60;99.90;;;;;;4984855;28;20042;-55
2023/01/12 10:47:49;;;;;;;23.48;3.50;;;10.60;99.90;;;;;;4988511;28;20050;-51
2023/01/12 10:50:26;;;;;;;23.13;3.60;;;10.60;99.90;;;;;;4985953;28;20054;-52
2023/01/12 10:53:01;;;;;;;19.67;3.55;;;10.70;99.90;;;;;;4969093;28;20048;-52
2023/01/12 10:55:31;;;;;;;22.75;3.67;;;10.70;99.90;;;;;;4985150;28;20056;-53
2023/01/12 10:57:57;;;;;;;23.67;3.45;;;10.70;99.90;;;;;;4986836;28;20073;-53
2023/01/12 11:00:25;;;;;;;17.08;3.78;;;10.70;99.90;;;;;;4983810;28;20046;-52
2023/01/12 11:02:51;;;;;;;18.02;3.60;;;10.80;99.90;;;;;;4987685;28;20059;-51
2023/01/12 11:05:29;;;;;;;22.33;3.65;;;10.70;99.90;;;;;;4987649;28;20159;-52
2023/01/12 11:07:55;;;;;;;19.92;3.60;;;10.80;99.90;;;;;;4990479;28;20508;-53
2023/01/12 11:10:31;;;;;;;21.92;4.30;;;10.80;99.90;;;;;;4985588;28;20049;-50
2023/01/12 11:13:02;;;;;;;27.00;3.83;;;10.80;99.90;;;;;;4982410;28;20390;-51
2023/01/12 11:15:31;;;;;;;20.13;4.13;;;10.80;99.90;;;;;;4979292;28;20154;-54
2023/01/12 11:17:59;;;;;;;17.73;3.78;;;10.80;99.90;;;;;;4985611;28;20042;-51
2023/01/12 11:20:38;;;;;;;24.00;4.03;;;10.80;99.90;;;;;;4978883;28;20740;-57
2023/01/12 11:23:11;;;;;;;30.85;4.25;;;10.80;99.90;;;;;;4980821;28;20034;-58
2023/01/12 11:25:44;;;;;;;25.83;3.92;;;10.80;99.90;;;;;;4982476;28;20055;-58
2023/01/12 11:28:32;;;;;;;22.98;4.43;;;10.80;99.90;;;;;;4983906;28;20042;-57
2023/01/12 11:31:09;;;;;;;27.70;4.00;;;10.90;99.90;;;;;;4983947;28;20130;-57
2023/01/12 11:33:42;;;;;;;24.25;4.32;;;10.90;99.90;;;;;;4977180;28;20050;-57
2023/01/12 11:36:19;;;;;;;27.15;4.65;;;11.00;99.90;;;;;;4980993;28;20034;-55
2023/01/12 11:38:48;;;;;;;23.63;3.93;;;11.10;99.90;;;;;;4986844;28;20497;-56
2023/01/12 11:43:47;;;;;;;27.23;4.13;;;11.10;99.90;;;;;;4985021;28;20070;-57
2023/01/12 11:44:42;;;;;;;26.63;4.13;;;11.10;99.90;;;;;;4982030;28;20054;-53
2023/01/12 11:47:12;;;;;;;20.50;3.88;;;11.10;99.90;;;;;;4983015;28;20114;-56
2023/01/12 11:49:47;;;;;;;20.15;3.92;;;11.10;99.90;;;;;;4978238;28;20077;-57
2023/01/12 11:52:15;;;;;;;19.27;4.00;;;11.20;99.90;;;;;;4980045;28;20050;-57
2023/01/12 11:54:41;;;;;;;21.08;3.95;;;11.20;99.90;;;;;;4975454;28;20042;-57
2023/01/12 11:57:12;;;;;;;24.73;3.88;;;11.10;99.90;;;;;;4983573;28;20043;-56
2023/01/12 12:00:16;;;;;;;23.85;4.82;;;11.10;99.90;;;;;;4977977;28;20112;-57
2023/01/12 12:03:05;;;;;;;24.27;4.30;;;11.20;99.90;;;;;;4980852;28;20045;-57
2023/01/12 12:06:08;;;;;;;25.48;4.43;;;11.30;99.90;;;;;;4976997;28;20397;-56
2023/01/12 12:08:59;;;;;;;24.27;4.55;;;11.20;99.90;;;;;;4981553;28;20042;-56
2023/01/12 12:11:57;;;;;;;24.60;4.43;;;11.20;99.90;;;;;;4980177;28;20057;-57
2023/01/12 12:14:55;;;;;;;28.05;4.70;;;11.20;99.90;;;;;;4981949;28;20046;-57
2023/01/12 12:17:27;;;;;;;27.90;4.88;;;11.20;99.90;;;;;;4980398;28;20039;-58
2023/01/12 12:20:05;;;;;;;27.80;4.43;;;11.20;99.90;;;;;;4982507;28;20061;-57
2023/01/12 12:22:48;;;;;;;20.38;3.88;;;11.20;99.90;;;;;;4975535;28;20053;-58
2023/01/12 12:25:23;;;;;;;25.33;4.13;;;11.20;99.90;;;;;;4974257;28;20413;-58
2023/01/12 12:28:29;;;;;;;20.92;3.75;;;11.20;99.90;;;;;;4978439;28;20489;-56
2023/01/12 12:31:16;;;;;;;29.92;5.10;;;11.20;99.90;;;;;;4977313;28;20058;-57
2023/01/12 12:34:06;;;;;;;24.60;4.10;;;11.20;99.90;;;;;;4978133;28;20039;-56
2023/01/12 12:36:32;;;;;;;29.92;4.93;;;11.20;99.90;;;;;;4980515;28;20070;-57
2023/01/12 12:39:34;;;;;;;20.13;3.90;;;11.10;99.90;;;;;;4977043;28;20129;-58
2023/01/12 12:45:37;;;;;;;24.02;4.28;;;11.10;99.90;;;;;;4980264;28;20054;-56
2023/01/12 12:48:05;;;;;;;22.80;3.78;;;11.10;99.90;;;;;;4981184;28;20133;-57
2023/01/12 12:50:47;;;;;;;22.08;3.90;;;11.10;99.90;;;;;;4979944;28;20065;-56
2023/01/12 12:53:18;;;;;;;13.45;3.58;;;11.10;99.90;;;;;;4982195;28;20038;-56
2023/01/12 12:55:45;;;;;;;17.73;3.42;;;11.20;99.90;;;;;;4978458;28;20409;-57
2023/01/12 12:58:19;;;;;;;17.98;3.72;;;11.20;99.90;;;;;;4980037;28;20100;-57
2023/01/12 13:00:45;;;;;;;16.70;3.35;;;11.20;99.90;;;;;;4982789;28;20420;-57
2023/01/12 13:03:40;;;;;;;24.95;3.55;;;11.30;99.90;;;;;;4982518;28;20049;-55
2023/01/12 13:06:28;;;;;;;18.83;3.50;;;11.20;99.90;;;;;;4975946;28;20039;-57
2023/01/12 13:09:00;;;;;;;24.90;3.78;;;11.30;99.90;;;;;;4975431;28;20116;-58
2023/01/12 13:11:53;;;;;;;19.13;4.18;;;11.20;99.90;;;;;;4982300;28;20149;-55
2023/01/12 13:14:37;;;;;;;17.83;3.17;;;11.20;99.90;;;;;;4979892;28;20133;-55
2023/01/12 13:17:17;;;;;;;16.08;3.05;;;11.20;99.90;;;;;;4981386;28;20046;-58
2023/01/12 13:19:49;;;;;;;15.65;3.33;;;11.20;99.90;;;;;;4986377;28;20464;-56
2023/01/12 13:22:44;;;;;;;12.23;2.42;;;11.20;99.90;;;;;;4984759;28;20048;-57
2023/01/12 13:25:15;;;;;;;11.48;2.40;;;11.20;99.90;;;;;;4977586;28;20073;-57
2023/01/12 13:27:54;;;;;;;10.10;2.67;;;11.20;99.90;;;;;;4980678;28;20043;-56
2023/01/12 13:30:25;;;;;;;11.27;2.38;;;11.20;99.90;;;;;;4980905;28;20058;-58
2023/01/12 13:33:16;;;;;;;10.43;2.53;;;11.20;99.90;;;;;;4978373;28;20510;-58
2023/01/12 13:35:48;;;;;;;15.50;2.92;;;11.10;99.90;;;;;;4987282;28;20520;-57
2023/01/12 13:38:27;;;;;;;13.82;2.28;;;11.10;99.90;;;;;;4994270;28;20050;-58
2023/01/12 13:44:33;;;;;;;16.23;3.25;;;11.10;99.90;;;;;;4954384;29;20162;-57
2023/01/12 13:47:09;;;;;;;10.02;2.42;;;11.10;99.90;;;;;;4953469;29;20050;-58
2023/01/12 13:49:44;;;;;;;9.90;2.53;;;11.10;99.90;;;;;;4954232;29;20069;-58
2023/01/12 13:52:43;;;;;;;8.85;2.60;;;11.00;99.90;;;;;;4953355;29;20059;-58
2023/01/12 13:55:20;;;;;;;4.75;2.08;;;11.00;99.90;;;;;;4904222;29;20051;-57